Effie, Minnesota
Current Conditions -  °F | °C
As of 1:33 PM on Sunday 23 Nov 2014 (Local Time) from KFOZ Reporting Station
Haze Haze  
Wind Chill:   Ceiling: 800
Heat Index:   Visibility: 4mi
Dew Point:   Wind: 6mph
Humidity: 87%   Direction: 200°SSW
Pressure: 29.39"   Gusts: NA
Location:  47.84°N, 93.64°W
Report Text: KFOZ 231933Z AUTO 20005KT 4SM BR OVC008 03/01 A2939 RMK AO2
Loading
Personal Weather Stations






























Interactive Weather Map New forecast layout! Learn more

10-Day Weather Forecast

Advertisements
Track Severe Weather on mobile